createdAt,value
2023-01-19T00:01:06.701Z,98778.03
2023-01-19T00:04:15.294Z,98779.81
2023-01-19T00:07:29.688Z,98781.97
2023-01-19T00:10:32.363Z,98779.03
2023-01-19T00:13:46.701Z,98783.56
2023-01-19T00:17:01.705Z,98772.44
2023-01-19T00:20:10.717Z,98775.66
2023-01-19T00:23:19.361Z,98783.13
2023-01-19T00:26:33.719Z,98774.06
2023-01-19T00:29:42.346Z,98778.88
2023-01-19T00:32:56.803Z,98773.06
2023-01-19T00:36:12.699Z,98770.72
2023-01-19T00:39:14.607Z,98770.47
2023-01-19T00:42:29.724Z,98777.16
2023-01-19T00:45:44.732Z,98777.94
2023-01-19T00:48:53.290Z,98777.94
2023-01-19T00:52:01.721Z,98775.00
2023-01-19T00:55:18.713Z,98773.19
2023-01-19T00:58:26.715Z,98769.28
2023-01-19T01:01:45.312Z,98760.50
2023-01-19T01:04:54.729Z,98757.72
2023-01-19T01:08:09.719Z,98763.06
2023-01-19T01:11:11.641Z,98773.44
2023-01-19T01:14:26.727Z,98758.87
2023-01-19T01:17:28.589Z,98751.72
2023-01-19T01:20:43.716Z,98746.22
2023-01-19T01:23:52.361Z,98748.28
2023-01-19T01:27:00.685Z,98749.06
2023-01-19T01:30:11.916Z,98761.28
2023-01-19T01:33:40.703Z,98766.59
2023-01-19T01:36:43.530Z,98763.97
2023-01-19T01:39:58.710Z,98754.72
2023-01-19T01:43:22.688Z,98755.03
2023-01-19T01:46:31.789Z,98749.41
2023-01-19T01:49:46.721Z,98740.22
2023-01-19T01:53:07.493Z,98758.00
2023-01-19T01:56:21.660Z,98760.25
2023-01-19T01:59:29.718Z,98771.22
2023-01-19T02:02:38.696Z,98769.41
2023-01-19T02:05:48.664Z,98781.56
2023-01-19T02:09:09.531Z,98787.66
2023-01-19T02:12:24.689Z,98787.16
2023-01-19T02:15:26.562Z,98778.25
2023-01-19T02:18:42.705Z,98766.34
2023-01-19T02:22:07.964Z,98730.81
2023-01-19T02:25:24.690Z,98738.66
2023-01-19T02:28:27.883Z,98748.28
2023-01-19T02:31:45.664Z,98781.13
2023-01-19T02:35:01.706Z,98806.28
2023-01-19T02:38:04.532Z,98818.22
2023-01-19T02:41:24.685Z,98791.72
2023-01-19T02:44:35.470Z,98774.25
2023-01-19T02:47:55.702Z,98777.94
2023-01-19T02:51:16.062Z,98754.12
2023-01-19T02:54:53.699Z,98735.06
2023-01-19T02:58:58.473Z,98749.34
2023-01-19T03:02:45.725Z,98780.06
2023-01-19T03:06:15.712Z,98781.94
2023-01-19T03:09:55.719Z,98788.59
2023-01-19T03:13:06.759Z,98784.66
2023-01-19T03:16:24.750Z,98791.25
2023-01-19T03:19:37.597Z,98785.50
2023-01-19T03:26:11.957Z,98818.38
2023-01-19T03:29:28.734Z,98799.81
2023-01-19T03:32:43.559Z,98787.91
2023-01-19T03:35:58.726Z,98777.03
2023-01-19T03:39:10.108Z,98764.34
2023-01-19T03:42:21.764Z,98726.22
2023-01-19T03:45:39.266Z,98719.63
2023-01-19T03:48:54.730Z,98731.09
2023-01-19T03:52:10.723Z,98732.25
2023-01-19T03:55:25.727Z,98737.00
2023-01-19T03:58:34.740Z,98756.03
2023-01-19T04:01:44.239Z,98765.84
2023-01-19T04:04:52.751Z,98784.34
2023-01-19T04:08:07.734Z,98783.88
2023-01-19T04:11:10.106Z,98778.34
2023-01-19T04:14:24.755Z,98768.53
2023-01-19T04:17:33.444Z,98770.97
2023-01-19T04:20:48.808Z,98777.34
2023-01-19T04:23:57.717Z,98781.13
2023-01-19T04:27:06.715Z,98770.56
2023-01-19T04:30:15.684Z,98771.09
2023-01-19T04:33:26.754Z,98783.50
2023-01-19T04:36:41.731Z,98777.94
2023-01-19T04:39:56.732Z,98779.03
2023-01-19T04:44:28.820Z,98753.94
2023-01-19T04:47:44.800Z,98753.94
2023-01-19T04:50:59.848Z,98758.34
2023-01-19T04:54:02.421Z,98758.87
2023-01-19T04:57:17.812Z,98764.16
2023-01-19T05:00:20.358Z,98762.59
2023-01-19T05:03:34.829Z,98767.91
2023-01-19T05:06:43.809Z,98764.78
2023-01-19T05:09:58.850Z,98790.97
2023-01-19T05:13:07.841Z,98794.16
2023-01-19T05:16:16.556Z,98772.75
2023-01-19T05:19:31.827Z,98770.94
2023-01-19T05:22:40.845Z,98811.63
2023-01-19T05:25:55.806Z,98822.19
2023-01-19T05:29:04.610Z,98827.78
2023-01-19T05:32:19.844Z,98825.66
2023-01-19T05:35:35.708Z,98822.47
2023-01-19T05:38:44.802Z,98832.47
2023-01-19T05:42:00.824Z,98834.09
2023-01-19T05:45:16.194Z,98833.78
2023-01-19T05:48:24.821Z,98821.84
2023-01-19T05:51:34.859Z,98807.28
2023-01-19T05:54:49.808Z,98812.00
2023-01-19T05:57:58.815Z,98812.59
2023-01-19T06:01:08.989Z,98798.03
2023-01-19T06:04:23.809Z,98779.50
2023-01-19T06:07:38.827Z,98783.72
2023-01-19T06:10:40.976Z,98798.00
2023-01-19T06:13:55.800Z,98798.28
2023-01-19T06:17:10.830Z,98783.69
2023-01-19T06:20:13.313Z,98782.91
2023-01-19T06:23:27.823Z,98795.06
2023-01-19T06:26:36.592Z,98765.13
2023-01-19T06:29:45.833Z,98786.53
2023-01-19T06:32:54.600Z,98775.72
2023-01-19T06:36:09.866Z,98771.44
2023-01-19T06:39:24.896Z,98787.38
2023-01-19T06:42:27.696Z,98814.34
2023-01-19T06:45:45.228Z,98814.94
2023-01-19T06:48:55.269Z,98823.09
2023-01-19T06:52:09.814Z,98828.16
2023-01-19T06:55:18.814Z,98826.75
2023-01-19T06:58:35.788Z,98822.78
2023-01-19T07:01:44.934Z,98814.84
2023-01-19T07:04:54.539Z,98814.31
2023-01-19T07:08:03.846Z,98814.28
2023-01-19T07:11:25.618Z,98808.97
2023-01-19T07:14:40.816Z,98816.91
2023-01-19T07:17:55.789Z,98807.62
2023-01-19T07:21:05.046Z,98801.50
2023-01-19T07:24:19.782Z,98815.78
2023-01-19T07:27:21.737Z,98823.94
2023-01-19T07:30:36.867Z,98830.56
2023-01-19T07:33:52.832Z,98841.41
2023-01-19T07:37:01.468Z,98837.41
2023-01-19T07:40:10.846Z,98823.38
2023-01-19T07:43:32.781Z,98825.75
2023-01-19T07:46:47.815Z,98834.25
2023-01-19T07:49:58.867Z,98833.94
2023-01-19T07:53:15.810Z,98851.41
2023-01-19T07:56:24.802Z,98864.59
2023-01-19T07:59:39.794Z,98865.91
2023-01-19T08:02:51.283Z,98856.63
2023-01-19T08:06:08.815Z,98861.91
2023-01-19T08:09:19.177Z,98842.53
2023-01-19T08:12:37.068Z,98840.41
2023-01-19T08:15:52.202Z,98852.59
2023-01-19T08:19:06.860Z,98836.91
2023-01-19T08:22:09.861Z,98834.31
2023-01-19T08:25:24.817Z,98828.22
2023-01-19T08:28:33.796Z,98846.19
2023-01-19T08:31:48.944Z,98844.03
2023-01-19T08:35:06.129Z,98853.03
2023-01-19T08:38:16.811Z,98849.31
2023-01-19T08:41:25.910Z,98845.62
2023-01-19T08:44:49.699Z,98838.75
2023-01-19T08:48:14.942Z,98851.63
2023-01-19T08:51:23.735Z,98859.28
2023-01-19T08:54:38.809Z,98856.38
2023-01-19T08:57:51.972Z,98855.03
2023-01-19T09:01:06.809Z,98855.03
2023-01-19T09:04:15.807Z,98855.59
2023-01-19T09:07:32.518Z,98859.78
2023-01-19T09:10:39.566Z,98848.13
2023-01-19T09:13:54.814Z,98834.87
2023-01-19T09:17:09.811Z,98841.50
2023-01-19T09:20:25.952Z,98842.03
2023-01-19T09:23:40.827Z,98850.28
2023-01-19T09:26:49.436Z,98851.53
2023-01-19T09:29:57.841Z,98848.09
2023-01-19T09:33:08.601Z,98841.72
2023-01-19T09:36:23.864Z,98847.81
2023-01-19T09:39:26.025Z,98844.16
2023-01-19T09:42:52.819Z,98857.63
2023-01-19T09:46:16.149Z,98857.09
2023-01-19T09:49:43.793Z,98853.91
2023-01-19T09:52:59.027Z,98849.41
2023-01-19T09:56:22.804Z,98855.22
2023-01-19T09:59:33.639Z,98843.19
2023-01-19T10:03:04.861Z,98853.25
2023-01-19T10:06:18.817Z,98852.22
2023-01-19T10:09:45.561Z,98866.47
2023-01-19T10:13:38.817Z,98872.06
2023-01-19T10:16:57.780Z,98872.31
2023-01-19T10:20:22.800Z,98869.16
2023-01-19T10:23:43.801Z,98867.31
2023-01-19T10:26:56.650Z,98872.59
2023-01-19T10:30:16.189Z,98883.50
2023-01-19T10:33:18.698Z,98879.75
2023-01-19T10:36:46.783Z,98875.81
2023-01-19T10:40:07.843Z,98870.84
2023-01-19T10:43:38.833Z,98881.44
2023-01-19T10:46:57.193Z,98892.91
2023-01-19T10:49:59.497Z,98896.66
2023-01-19T10:53:27.891Z,98897.53
2023-01-19T10:56:38.384Z,98894.41
2023-01-19T10:59:57.868Z,98896.53
2023-01-19T11:03:01.099Z,98895.78
2023-01-19T11:06:21.795Z,98881.22
2023-01-19T11:09:30.666Z,98898.16
2023-01-19T11:12:39.803Z,98876.97
2023-01-19T11:15:55.741Z,98884.25
2023-01-19T11:19:05.796Z,98883.94
2023-01-19T11:22:26.796Z,98886.63
2023-01-19T11:25:42.805Z,98895.06
2023-01-19T11:29:06.512Z,98894.00
2023-01-19T11:32:19.634Z,98891.28
2023-01-19T11:35:41.872Z,98889.72
2023-01-19T11:38:55.947Z,98903.00
2023-01-19T11:42:08.108Z,98904.06
2023-01-19T11:45:30.086Z,98902.00
2023-01-19T11:48:59.507Z,98908.81
2023-01-19T11:52:43.077Z,98909.13
2023-01-19T11:55:58.684Z,98896.72
2023-01-19T11:59:18.790Z,98917.59
2023-01-19T12:02:35.289Z,98917.09
2023-01-19T12:05:56.912Z,98927.97
2023-01-19T12:09:15.200Z,98929.78
2023-01-19T12:12:36.865Z,98926.84
2023-01-19T12:15:50.617Z,98933.44
2023-01-19T12:19:22.001Z,98947.75
2023-01-19T12:22:47.791Z,98947.22
2023-01-19T12:26:25.072Z,98944.81
2023-01-19T12:29:43.036Z,98950.16
2023-01-19T12:32:51.862Z,98951.22
2023-01-19T12:36:07.071Z,98948.84
2023-01-19T12:39:22.578Z,98953.34
2023-01-19T12:42:33.925Z,98968.62
2023-01-19T12:45:55.817Z,98964.66
2023-01-19T12:49:21.807Z,98973.69
2023-01-19T12:52:40.721Z,98981.84
2023-01-19T12:56:06.777Z,98978.44
2023-01-19T12:59:36.473Z,98991.97
2023-01-19T13:02:50.867Z,98993.06
2023-01-19T13:05:59.942Z,99001.81
2023-01-19T13:09:08.787Z,99011.88
2023-01-19T13:12:33.136Z,99016.41
2023-01-19T13:15:41.696Z,99036.00
2023-01-19T13:19:06.826Z,99035.19
2023-01-19T13:22:52.821Z,99045.03
2023-01-19T13:26:06.442Z,99054.84
2023-01-19T13:29:38.937Z,99055.09
2023-01-19T13:32:49.016Z,99057.22
2023-01-19T13:36:05.787Z,99064.66
2023-01-19T13:39:20.070Z,99073.38
2023-01-19T13:42:40.831Z,99074.94
2023-01-19T13:45:56.197Z,99083.16
2023-01-19T13:49:27.383Z,99092.69
2023-01-19T13:52:36.951Z,99098.78
2023-01-19T13:55:46.178Z,99089.75
2023-01-19T13:59:05.720Z,99103.53
2023-01-19T14:02:20.031Z,99110.69
2023-01-19T14:05:40.910Z,99107.22
2023-01-19T14:09:23.519Z,99115.50
2023-01-19T14:12:32.769Z,99115.00
2023-01-19T14:15:42.939Z,99102.88
2023-01-19T14:18:51.787Z,99103.91
2023-01-19T14:22:04.792Z,99100.50
2023-01-19T14:25:33.841Z,99095.94
2023-01-19T14:28:43.684Z,99100.19
2023-01-19T14:32:07.753Z,99097.34
2023-01-19T14:35:34.820Z,99128.84
2023-01-19T14:38:51.945Z,99128.31
2023-01-19T14:42:10.921Z,99131.72
2023-01-19T14:45:28.803Z,99133.56
2023-01-19T14:48:43.776Z,99133.59
2023-01-19T14:51:52.619Z,99159.81
2023-01-19T14:55:02.786Z,99157.69
2023-01-19T14:58:19.775Z,99154.25
2023-01-19T15:01:29.061Z,99162.22
2023-01-19T15:04:37.771Z,99171.75
2023-01-19T15:07:46.898Z,99210.16
2023-01-19T15:10:55.759Z,99218.38
2023-01-19T15:14:04.421Z,99223.41
2023-01-19T15:17:12.761Z,99221.81
2023-01-19T15:20:22.811Z,99218.34
2023-01-19T15:23:38.784Z,99214.94
2023-01-19T15:26:47.466Z,99209.09
2023-01-19T15:29:55.758Z,99190.81
2023-01-19T15:33:11.784Z,99198.75
2023-01-19T15:36:28.764Z,99214.13
2023-01-19T15:39:30.918Z,99211.47
2023-01-19T15:42:46.762Z,99231.87
2023-01-19T15:46:02.656Z,99233.16
2023-01-19T15:49:17.766Z,99217.06
2023-01-19T15:52:26.745Z,99233.72
2023-01-19T15:55:35.468Z,99239.25
2023-01-19T15:58:44.725Z,99250.12
2023-01-19T16:01:59.864Z,99259.13
2023-01-19T16:05:09.151Z,99282.16
2023-01-19T16:08:25.762Z,99302.00
2023-01-19T16:11:41.841Z,99296.44
2023-01-19T16:14:50.481Z,99300.94
2023-01-19T16:17:58.759Z,99290.34
2023-01-19T16:21:13.780Z,99314.19
2023-01-19T16:24:22.458Z,99321.59
2023-01-19T16:27:37.743Z,99326.88
2023-01-19T16:30:53.793Z,99338.78
2023-01-19T16:34:02.811Z,99346.72
2023-01-19T16:37:12.576Z,99345.91
2023-01-19T16:40:21.763Z,99360.75
2023-01-19T16:43:36.910Z,99341.38
2023-01-19T16:46:47.233Z,99367.38
2023-01-19T16:50:03.192Z,99376.63
2023-01-19T16:53:11.696Z,99379.53
2023-01-19T16:56:26.787Z,99372.38
2023-01-19T16:59:29.338Z,99380.31
2023-01-19T17:02:45.745Z,99397.72
2023-01-19T17:06:00.766Z,99392.69
2023-01-19T17:09:03.378Z,99401.97
2023-01-19T17:12:19.264Z,99408.06
2023-01-19T17:15:30.141Z,99417.03
2023-01-19T17:18:45.766Z,99431.31
2023-01-19T17:21:49.519Z,99405.06
2023-01-19T17:25:06.173Z,99430.50
2023-01-19T17:28:08.999Z,99441.38
2023-01-19T17:31:28.247Z,99433.12
2023-01-19T17:34:37.914Z,99434.97
2023-01-19T17:37:55.143Z,99438.16
2023-01-19T17:41:04.603Z,99431.03
2023-01-19T17:44:18.757Z,99438.19
2023-01-19T17:47:35.840Z,99457.22
2023-01-19T17:50:53.048Z,99455.59
2023-01-19T17:53:56.286Z,99461.94
2023-01-19T17:57:12.117Z,99460.03
2023-01-19T18:00:22.741Z,99459.53
2023-01-19T18:03:32.699Z,99459.78
2023-01-19T18:06:42.756Z,99413.25
2023-01-19T18:10:00.968Z,99459.78
2023-01-19T18:13:10.850Z,99462.66
2023-01-19T18:16:24.108Z,99468.97
2023-01-19T18:19:33.769Z,99472.44
2023-01-19T18:22:43.176Z,99476.38
2023-01-19T18:26:02.682Z,99475.66
2023-01-19T18:29:14.868Z,99484.34
2023-01-19T18:32:32.194Z,99479.06
2023-01-19T18:35:41.635Z,99487.22
2023-01-19T18:38:58.159Z,99497.53
2023-01-19T18:42:14.225Z,99490.16
2023-01-19T18:45:37.221Z,99497.81
2023-01-19T18:48:43.745Z,99502.28
2023-01-19T18:52:00.113Z,99498.37
2023-01-19T18:55:17.208Z,99501.28
2023-01-19T18:58:21.359Z,99499.41
2023-01-19T19:01:40.223Z,99503.91
2023-01-19T19:04:45.175Z,99511.81
2023-01-19T19:08:01.166Z,99507.34
2023-01-19T19:11:08.229Z,99516.47
2023-01-19T19:14:30.256Z,99508.28
2023-01-19T19:17:36.030Z,99513.00
2023-01-19T19:20:52.203Z,99521.19
2023-01-19T19:24:03.739Z,99526.25
2023-01-19T19:27:13.508Z,99525.44
2023-01-19T19:30:24.212Z,99530.50
2023-01-19T19:33:34.651Z,99538.72
2023-01-19T19:36:45.173Z,99546.03
2023-01-19T19:39:55.762Z,99554.03
2023-01-19T19:43:12.215Z,99553.75
2023-01-19T19:46:22.840Z,99569.91
2023-01-19T19:49:39.590Z,99575.19
2023-01-19T19:52:43.860Z,99585.44
2023-01-19T19:56:08.847Z,99576.97
2023-01-19T19:59:19.069Z,99584.63
2023-01-19T20:02:28.741Z,99576.56
2023-01-19T20:05:39.408Z,99589.37
2023-01-19T20:08:58.127Z,99599.97
2023-01-19T20:12:14.152Z,99595.81
2023-01-19T20:15:17.196Z,99587.03
2023-01-19T20:18:33.126Z,99564.59
2023-01-19T20:21:43.411Z,99574.87
2023-01-19T20:25:02.003Z,99571.16
2023-01-19T20:28:05.540Z,99576.44
2023-01-19T20:31:35.165Z,99591.22
2023-01-19T20:34:45.117Z,99604.56
2023-01-19T20:38:00.746Z,99602.78
2023-01-19T20:41:11.320Z,99598.97
2023-01-19T20:44:31.154Z,99602.38
2023-01-19T20:47:47.200Z,99607.31
2023-01-19T20:50:57.030Z,99613.16
2023-01-19T20:54:17.230Z,99606.84
2023-01-19T20:57:33.162Z,99596.28
2023-01-19T21:00:49.791Z,99597.87
2023-01-19T21:04:06.186Z,99537.19
2023-01-19T21:07:16.169Z,99590.56
2023-01-19T21:10:31.725Z,99597.87
2023-01-19T21:13:41.186Z,99605.59
2023-01-19T21:16:50.729Z,99609.31
2023-01-19T21:20:00.040Z,99600.31
2023-01-19T21:23:16.096Z,99606.78
2023-01-19T21:26:18.867Z,99615.03
2023-01-19T21:29:33.712Z,99623.69
2023-01-19T21:32:42.654Z,99621.53
2023-01-19T21:36:01.969Z,99629.72
2023-01-19T21:39:17.737Z,99621.59
2023-01-19T21:42:26.866Z,99640.94
2023-01-19T21:45:49.785Z,99647.50
2023-01-19T21:48:51.897Z,99682.25
2023-01-19T21:52:06.714Z,99699.13
2023-01-19T21:55:23.723Z,99719.53
2023-01-19T21:58:38.934Z,99715.69
2023-01-19T22:01:53.825Z,99709.03
2023-01-19T22:05:09.710Z,99687.03
2023-01-19T22:08:11.733Z,99658.06
2023-01-19T22:11:28.767Z,99665.41
2023-01-19T22:14:30.817Z,99679.97
2023-01-19T22:17:45.730Z,99685.19
2023-01-19T22:21:00.731Z,99668.97
2023-01-19T22:24:09.507Z,99664.78
2023-01-19T22:27:25.696Z,99665.09
2023-01-19T22:30:27.965Z,99674.13
2023-01-19T22:33:43.689Z,99687.16
2023-01-19T22:36:45.701Z,99679.78
2023-01-19T22:40:00.756Z,99669.75
2023-01-19T22:43:15.748Z,99673.28
2023-01-19T22:46:34.031Z,99671.59
2023-01-19T22:49:42.744Z,99660.25
2023-01-19T22:52:56.459Z,99670.63
2023-01-19T22:56:04.716Z,99676.47
2023-01-19T22:59:20.717Z,99669.34
2023-01-19T23:02:23.070Z,99659.00
2023-01-19T23:05:42.749Z,99637.25
2023-01-19T23:08:45.249Z,99640.25
2023-01-19T23:11:59.685Z,99641.84
2023-01-19T23:15:01.740Z,99636.88
2023-01-19T23:18:16.705Z,99616.28
2023-01-19T23:21:20.938Z,99617.22
2023-01-19T23:24:35.709Z,99619.06
2023-01-19T23:27:44.344Z,99621.44
2023-01-19T23:30:59.831Z,99619.06
2023-01-19T23:34:07.739Z,99625.94
2023-01-19T23:37:22.680Z,99634.66
2023-01-19T23:40:24.706Z,99649.97
2023-01-19T23:43:40.732Z,99649.72
2023-01-19T23:46:49.705Z,99652.41
2023-01-19T23:49:58.460Z,99663.25
2023-01-19T23:53:07.779Z,99662.44
2023-01-19T23:56:37.795Z,99655.44
2023-01-19T23:59:47.018Z,99639.88
